EmailTwitter


Observations de surface / France / LFBO (07630)

Régions: Québec | Canada | États-Unis | Europe | France | UK | Ailleurs
Station
Affichage
Infos & localisation pour LFBO (07630) | Aide pour décoder les METARs

Observations prises le 2019-12-13 à 00H00 UTC à TOULOUSE/BLAGNAC, FR (LFBO)

Etat du ciel: partiellement nuageux.

Obstacle(s) à la visibilité: faible pluie.

Température: 12.0 Celsius

Point de rosée: 11.0 Celsius

Humidité relative: 94%

Facteur vent: 9.

Vents: Ouest à 28 km/h ou 15 noeuds.

Pression au niveau moyen de la mer: 99.80 kilopascals.

Visibilité horizontale: 6.21 milles terrestres ou 9.94 kilomètres.

Hauteur du plafond: 427 mètres ( 1400 pieds ).

Observation METAR:

LFBO 130000Z AUTO 27015KT 9999 -RA BKN014 BKN019 BKN024 12/11 Q0998 TEMPO 4000

RA BECMG 28020G35KT=